Flight Track Log - Related Links

Times and Time Zones

All times are in EDT time to prevent confusion due to time zone crossing. See the EJA365 flight status page for this flight to view local times or setup timezone preferences in your user account.

Time Position Orientation Groundspeed Altitude Reporting Facility
EDT Latitude Longitude Course Direction KTS MPH feet Rate Location/Type
Fri 10:19:13 AM 43.9714 -92.5175 115° Southeast 216 249 7,000  Level Minneapolis Center
Fri 10:20:15 AM 43.9372 -92.4189 116° Southeast 297 342 9,900 3,339 Climbing Minneapolis Center
Fri 10:21:17 AM 43.8950 -92.2922 115° Southeast 343 395 13,900 4,049 Climbing Minneapolis Center
Fri 10:22:18 AM 43.8489 -92.1622 116° Southeast 376 433 18,200 3,902 Climbing Minneapolis Center
Fri 10:23:20 AM 43.7994 -92.0203 116° Southeast 401 461 21,900 3,048 Climbing Minneapolis Center
Fri 10:24:00 AM 43.6689 -91.8234 115° Southeast  Level FlightAware Approximate
Fri 10:24:22 AM 43.7464 -91.8742 117° Southeast 423 487 24,500  Level Minneapolis Center
Fri 10:25:23 AM 43.6925 -91.7275 117° Southeast 429 494 27,000 1,822 Climbing Minneapolis Center
Fri 10:26:37 AM 43.6361 -91.5803 118° Southeast 433 498 28,600 1,765 Climbing Minneapolis Center
Fri 10:27:39 AM 43.5686 -91.3925 116° Southeast 449 517 31,000 1,984 Climbing Minneapolis Center
Fri 10:28:41 AM 43.5003 -91.2078 117° Southeast 452 520 32,700 968 Climbing Minneapolis Center
Fri 10:29:43 AM 43.4428 -91.0519 117° Southeast 456 525 33,000 146 Climbing Minneapolis Center
Fri 10:30:44 AM 43.3844 -90.8953 117° Southeast 459 528 33,000  Level Minneapolis Center
Fri 10:31:46 AM 43.3228 -90.7353 118° Southeast 468 539 33,000  Level Minneapolis Center
Fri 10:32:29 AM 43.2753 -90.6067 117° Southeast 475 547 33,000  Level Chicago Center
Fri 10:33:30 AM 43.2156 -90.4486 117° Southeast 470 541 33,000 726 Level Chicago Center
Fri 10:34:33 AM 43.1561 -90.2967 118° Southeast 458 527 34,500 1,403 Climbing Chicago Center
Fri 10:35:34 AM 43.0994 -90.1461 117° Southeast 449 517 35,900 1,220 Climbing Chicago Center
Fri 10:36:36 AM 43.0419 -89.9975 118° Southeast 446 513 37,000 1,065 Climbing Chicago Center
Fri 10:37:38 AM 42.9758 -89.8283 118° Southeast 444 511 38,100 1,016 Climbing Chicago Center
Fri 10:38:40 AM 42.9186 -89.6806 118° Southeast 442 509 39,100 968 Climbing Chicago Center
Fri 10:39:42 AM 42.8619 -89.5367 118° Southeast 434 499 40,100 774 Climbing Chicago Center
Fri 10:40:44 AM 42.8044 -89.3922 118° Southeast 433 498 40,700 432 Climbing Chicago Center
Fri 10:41:47 AM 42.7378 -89.2208 118° Southeast 440 506 41,000 144 Climbing Chicago Center
Fri 10:42:49 AM 42.6781 -89.0714 118° Southeast 450 518 41,000  Level Chicago Center
Fri 10:43:51 AM 42.6161 -88.9200 119° Southeast 458 527 41,000  Level Chicago Center
Fri 10:44:52 AM 42.5547 -88.7650 118° Southeast 465 535 41,000  Level Chicago Center
Fri 10:45:54 AM 42.4944 -88.6156 119° Southeast 458 527 41,000  Level Chicago Center
Fri 10:46:56 AM 42.4236 -88.4403 119° Southeast 455 524 41,000  Level Chicago Center
Fri 10:47:58 AM 42.3619 -88.2933 120° Southeast 451 519 41,000  Level Chicago Center
Fri 10:49:00 AM 42.3083 -88.1625 119° Southeast 447 514 41,000  Level Chicago Center
Fri 10:50:00 AM 42.2511 -88.0297 120° Southeast  Level FlightAware Approximate
Fri 10:51:04 AM 42.1725 -87.8450 120° Southeast 444 511 41,000  Level Chicago Center
Fri 10:52:06 AM 42.1067 -87.7069 123° Southeast 440 506 41,000  Level Chicago Center
Fri 10:53:08 AM 42.0414 -87.5661 122° Southeast 441 507 41,000  Level Chicago Center
Fri 10:54:10 AM 41.9761 -87.4286 123° Southeast 439 505 41,000  Level Chicago Center
Fri 10:55:11 AM 41.9097 -87.2892 123° Southeast 442 509 41,000  Level Chicago Center
Fri 10:56:13 AM 41.8442 -87.1508 122° Southeast 438 504 41,000  Level Chicago Center
Fri 10:57:15 AM 41.7639 -86.9853 123° Southeast 440 506 41,000  Level Chicago Center
Fri 10:58:17 AM 41.6981 -86.8475 123° Southeast 440 506 41,000  Level Chicago Center
Fri 10:59:19 AM 41.6297 -86.7047 123° Southeast 440 506 41,000  Level Chicago Center
Fri 11:00:20 AM 41.5639 -86.5681 123° Southeast 439 505 41,000  Level Chicago Center
Fri 11:01:22 AM 41.4969 -86.4297 123° Southeast 442 509 41,000  Level Chicago Center
Fri 11:02:24 AM 41.4311 -86.2939 123° Southeast 441 507 41,000  Level Chicago Center
Fri 11:03:26 AM 41.3631 -86.1556 123° Southeast 445 512 41,000  Level Chicago Center
Fri 11:04:28 AM 41.2811 -85.9900 123° Southeast 449 517 41,000  Level Chicago Center
Fri 11:05:29 AM 41.2122 -85.8517 123° Southeast 450 518 41,000  Level Chicago Center
Fri 11:06:31 AM 41.1425 -85.7106 123° Southeast 459 528 41,000  Level Chicago Center
Fri 11:07:33 AM 41.0742 -85.5736 123° Southeast 453 521 41,000  Level Chicago Center
Fri 11:08:34 AM 41.0058 -85.4372 124° Southeast 450 518 41,000  Level Chicago Center
Fri 11:09:36 AM 40.9375 -85.3025 124° Southeast 448 516 41,000  Level Chicago Center
Fri 11:10:38 AM 40.8544 -85.1386 124° Southeast 448 516 41,000  Level Chicago Center
Fri 11:11:40 AM 40.7856 -85.0022 124° Southeast 448 516 41,000  Level Chicago Center
Fri 11:12:41 AM 40.7164 -84.8667 124° Southeast 448 516 41,000  Level Chicago Center
Fri 11:13:43 AM 40.6472 -84.7314 124° Southeast 448 516 41,000  Level Chicago Center
Fri 11:14:26 AM 40.5939 -84.6325 125° Southeast 448 516 41,000  Level Indianapolis Center
Fri 11:15:28 AM 40.5233 -84.4947 124° Southeast 450 518 41,000  Level Indianapolis Center
Fri 11:16:30 AM 40.4544 -84.3589 124° Southeast 445 512 41,000  Level Indianapolis Center
Fri 11:17:31 AM 40.3825 -84.2233 125° Southeast 447 514 41,000  Level Indianapolis Center
Fri 11:18:33 AM 40.3119 -84.0883 124° Southeast 446 513 41,000  Level Indianapolis Center
Fri 11:19:34 AM 40.2433 -83.9469 122° Southeast 451 519 41,000  Level Indianapolis Center
Fri 11:20:36 AM 40.1689 -83.7769 120° Southeast 456 525 41,000  Level Indianapolis Center
Fri 11:21:37 AM 40.1253 -83.6797 120° Southeast 459 528 41,000  Level Indianapolis Center
Fri 11:22:39 AM 40.0364 -83.4850 121° Southeast 459 528 41,000  Level Indianapolis Center
Fri 11:23:41 AM 39.9694 -83.3356 120° Southeast 463 533 41,000 -49 Level Indianapolis Center
Fri 11:24:42 AM 39.9008 -83.1875 121° Southeast 465 535 40,900  Descending Indianapolis Center
Fri 11:25:44 AM 39.8333 -83.0403 121° Southeast 464 534 41,000 49 Climbing Indianapolis Center
Fri 11:26:45 AM 39.7656 -82.8947 121° Southeast 467 537 41,000  Level Indianapolis Center
Fri 11:27:47 AM 39.6981 -82.7503 121° Southeast 464 534 41,000  Level Indianapolis Center
Fri 11:28:49 AM 39.6308 -82.6056 121° Southeast 463 533 41,000  Level Indianapolis Center
Fri 11:29:50 AM 39.5628 -82.4617 121° Southeast 464 534 41,000  Level Indianapolis Center
Fri 11:30:52 AM 39.4944 -82.3167 121° Southeast 466 536 41,000  Level Indianapolis Center
Fri 11:31:53 AM 39.4303 -82.1814 122° Southeast 466 536 41,000  Level Indianapolis Center
Fri 11:32:55 AM 39.3619 -82.0372 121° Southeast 469 540 41,000  Level Indianapolis Center
Fri 11:33:56 AM 39.2797 -81.8639 121° Southeast 470 541 41,000  Level Indianapolis Center
Fri 11:34:58 AM 39.2117 -81.7211 122° Southeast 468 539 41,000  Level Indianapolis Center
Fri 11:36:00 AM 39.1428 -81.5792 122° Southeast 464 534 41,000  Level Indianapolis Center
Fri 11:37:01 AM 39.0742 -81.4367 122° Southeast 464 534 41,000  Level Indianapolis Center
Fri 11:38:03 AM 39.0053 -81.2947 122° Southeast 462 532 41,000  Level Indianapolis Center
Fri 11:39:04 AM 38.9358 -81.1536 122° Southeast 461 531 41,000  Level Indianapolis Center
Fri 11:40:06 AM 38.8669 -81.0136 122° Southeast 459 528 41,000  Level Indianapolis Center
Fri 11:41:07 AM 38.7972 -80.8742 123° Southeast 460 529 41,000  Level Indianapolis Center
Fri 11:42:09 AM 38.7314 -80.7392 122° Southeast 450 518 41,000  Level Indianapolis Center
Fri 11:43:10 AM 38.6636 -80.6028 122° Southeast 451 519 41,000  Level Indianapolis Center
Fri 11:44:12 AM 38.5950 -80.4653 123° Southeast 457 526 41,000 -339 Level Indianapolis Center
Fri 11:45:14 AM 38.5208 -80.3169 123° Southeast 461 531 40,300 -835 Descending Indianapolis Center
Fri 11:45:31 AM 38.4931 -80.2686 126° Southeast 458 527 39,900 -1,091 Descending Washington Center
Fri 11:46:31 AM 38.4233 -80.1289 122° Southeast 458 527 38,900 -950 Descending Washington Center
Fri 11:47:31 AM 38.3533 -79.9922 123° Southeast 458 527 38,000 -950 Descending Washington Center
Fri 11:48:31 AM 38.2911 -79.8669 122° Southeast 458 527 37,000 -1,150 Descending Washington Center
Fri 11:49:31 AM 38.2228 -79.7333 123° Southeast 458 527 35,700 -1,600 Descending Washington Center
Fri 11:50:31 AM 38.1564 -79.6031 123° Southeast 452 520 33,800 -1,950 Descending Washington Center
Fri 11:51:31 AM 38.0878 -79.4675 123° Southeast 452 520 31,800 -2,050 Descending Washington Center
Fri 11:52:31 AM 38.0111 -79.3186 123° Southeast 462 532 29,700 -1,400 Descending Washington Center
Fri 11:53:31 AM 37.9422 -79.1861 123° Southeast 462 532 29,000 -350 Descending Washington Center
Fri 11:54:31 AM 37.8769 -79.0592 123° Southeast 450 518 29,000  Level Washington Center
Fri 11:55:31 AM 37.8097 -78.9378 125° Southeast 439 505 29,000  Level Washington Center
Fri 11:56:31 AM 37.7439 -78.8194 125° Southeast 427 491 29,000  Level Washington Center
Fri 11:57:31 AM 37.6844 -78.7092 124° Southeast 415 478 29,000  Level Washington Center
Fri 11:58:31 AM 37.6189 -78.5781 122° Southeast 423 487 29,000  Level Washington Center
Fri 11:59:31 AM 37.5661 -78.4319 114° Southeast 444 511 29,000  Level Washington Center
Fri 12:00:31 PM 37.5092 -78.2806 115° Southeast 463 533 29,000  Level Washington Center
Fri 12:01:31 PM 37.4558 -78.1400 116° Southeast 463 533 29,000 -250 Level Washington Center
Fri 12:02:31 PM 37.4025 -77.9944 115° Southeast 456 525 28,500 -500 Descending Washington Center
Fri 12:03:31 PM 37.3508 -77.8569 115° Southeast 451 519 28,000 -250 Descending Washington Center
Fri 12:04:31 PM 37.3014 -77.7222 115° Southeast 440 506 28,000 -750 Level Washington Center
Fri 12:05:31 PM 37.2475 -77.5800 115° Southeast 440 506 26,500 -1,500 Descending Washington Center
Fri 12:06:31 PM 37.1914 -77.4350 116° Southeast 445 512 25,000 -1,608 Descending Washington Center
Fri 12:07:08 PM 37.1531 -77.3403 117° Southeast 456 525 23,900 -1,700 Descending Washington Center
Fri 12:07:31 PM 37.1331 -77.2800 113° Southeast 445 512 23,300 -1,479 Descending Washington Center
Fri 12:08:21 PM 37.0908 -77.1722 116° Southeast 434 499 22,100 -1,527 Descending Washington Center
Fri 12:09:21 PM 37.0422 -77.0439 115° Southeast 404 465 20,500 -1,800 Descending Washington Center
Fri 12:10:31 PM 36.9878 -76.8972 115° Southeast 404 465 18,200 -2,031 Descending Washington Center
Fri 12:11:31 PM 36.9389 -76.7717 116° Southeast 393 452 16,100 -2,069 Descending Washington Center
Fri 12:11:58 PM 36.9225 -76.7247 114° Southeast 391 450 15,200 -2,000 Descending Washington Center
Fri 12:12:31 PM 36.8942 -76.6567 117° Southeast 381 438 14,100 -2,091 Descending Washington Center
Fri 12:13:04 PM 36.8694 -76.5942 116° Southeast 366 421 12,900 -1,900 Descending Washington Center
Fri 12:13:31 PM 36.8492 -76.5419 116° Southeast 375 432 12,200 -1,791 Descending Washington Center
Fri 12:14:11 PM 36.8225 -76.4742 116° Southeast 356 410 10,900 -1,740 Descending Washington Center
Fri 12:15:11 PM 36.7856 -76.3778 116° Southeast 302 348 9,300 -1,606 Descending Washington Center
Fri 12:16:18 PM 36.7467 -76.2736 115° Southeast 280 322 7,500 -1,672 Descending Washington Center
Fri 12:17:13 PM 36.7136 -76.1931 117° Southeast 284 327 5,900 -1,513 Descending Washington Center
Fri 12:18:13 PM 36.6828 -76.1150 116° Southeast 253 291 4,600 -1,252 Descending Washington Center
Fri 12:19:08 PM 36.6558 -76.0475 116° Southeast 236 272 3,500 -1,252 Descending Washington Center
Fri 12:20:08 PM 36.6247 -75.9697 116° Southeast 225 259 2,200 -744 Descending Washington Center
Fri 12:21:09 PM 36.5936 -75.9153 125° Southeast 200 230 2,000 -98 Descending Washington Center
Fri 12:22:10 PM 36.5542 -75.8867 150° Southeast 167 192 2,000  Level Washington Center
Fri 12:23:10 PM 36.5164 -75.9150 211° Southwest 158 182 2,000  Level Washington Center

Login

Don't have an account? Register now (free) for customized features, flight alerts, and more!